createdAt,value
2023-02-01T00:01:44.209Z,213746.00
2023-02-01T00:07:49.804Z,213765.00
2023-02-01T00:13:52.328Z,213746.00
2023-02-01T00:19:54.843Z,213765.00
2023-02-01T00:26:01.276Z,213787.00
2023-02-01T00:32:03.677Z,213759.00
2023-02-01T00:38:05.955Z,213746.00
2023-02-01T00:44:08.941Z,213721.00
2023-02-01T00:50:11.654Z,213667.00
2023-02-01T00:56:14.452Z,213627.00
2023-02-01T01:02:16.995Z,213580.00
2023-02-01T01:08:19.585Z,213538.00
2023-02-01T01:14:21.985Z,213532.00
2023-02-01T01:20:24.309Z,213456.00
2023-02-01T01:26:27.485Z,213394.00
2023-02-01T01:32:30.000Z,213295.00
2023-02-01T01:38:32.391Z,213209.00
2023-02-01T01:44:58.740Z,213201.00
2023-02-01T01:51:07.712Z,213147.00
2023-02-01T01:57:17.890Z,213102.00
2023-02-01T02:03:24.544Z,213040.00
2023-02-01T02:09:27.114Z,213076.00
2023-02-01T02:15:31.680Z,213201.00
2023-02-01T02:21:55.179Z,213273.00
2023-02-01T02:28:54.498Z,213267.00
2023-02-01T02:35:31.776Z,213253.00
2023-02-01T02:42:28.635Z,213121.00
2023-02-01T02:48:55.968Z,213002.00
2023-02-01T02:55:00.182Z,212944.00
2023-02-01T03:01:22.553Z,212870.00
2023-02-01T03:08:05.068Z,212851.00
2023-02-01T03:14:08.015Z,212831.00
2023-02-01T03:20:14.797Z,212771.00
2023-02-01T03:26:20.135Z,212763.00
2023-02-01T03:32:23.050Z,212765.00
2023-02-01T03:38:38.971Z,212763.00
2023-02-01T03:45:00.098Z,212791.00
2023-02-01T03:51:06.230Z,212777.00
2023-02-01T03:57:12.713Z,212757.00
2023-02-01T04:03:15.231Z,212729.00
2023-02-01T04:09:17.552Z,212673.00
2023-02-01T04:15:19.714Z,212659.00
2023-02-01T04:21:21.735Z,212639.00
2023-02-01T04:33:25.780Z,212679.00
2023-02-01T04:39:28.262Z,212785.00
2023-02-01T04:45:30.803Z,212870.00
2023-02-01T04:51:33.755Z,212924.00
2023-02-01T04:57:36.307Z,212962.00
2023-02-01T05:03:38.773Z,212938.00
2023-02-01T05:09:40.855Z,212878.00
2023-02-01T05:15:43.129Z,212884.00
2023-02-01T05:21:45.460Z,212870.00
2023-02-01T05:27:47.708Z,212851.00
2023-02-01T05:33:49.935Z,212837.00
2023-02-01T05:39:52.056Z,212831.00
2023-02-01T05:45:54.574Z,212870.00
2023-02-01T05:51:59.295Z,212924.00
2023-02-01T05:58:02.814Z,213002.00
2023-02-01T06:04:05.226Z,213048.00
2023-02-01T06:10:08.143Z,213209.00
2023-02-01T06:16:10.564Z,213315.00
2023-02-01T06:22:12.960Z,213353.00
2023-02-01T06:28:15.257Z,213520.00
2023-02-01T06:34:17.369Z,214046.00
2023-02-01T06:40:19.377Z,215417.00
2023-02-01T06:46:21.493Z,215092.00
2023-02-01T06:52:23.582Z,215409.00
2023-02-01T06:58:28.959Z,212058.00
2023-02-01T07:04:31.737Z,215557.00
2023-02-01T07:10:35.529Z,215993.00
2023-02-01T07:16:38.113Z,215999.00
2023-02-01T07:22:40.318Z,215755.00
2023-02-01T07:28:42.829Z,215775.00
2023-02-01T07:34:46.022Z,211989.00
2023-02-01T07:40:48.464Z,212215.00
2023-02-01T07:46:51.340Z,212588.00
2023-02-01T07:52:54.755Z,214510.00
2023-02-01T07:59:01.988Z,215791.00
2023-02-01T08:05:04.505Z,215348.00
2023-02-01T08:11:08.011Z,214773.00
2023-02-01T08:17:10.858Z,214889.00
2023-02-01T08:23:13.831Z,215120.00
2023-02-01T08:29:16.908Z,214424.00
2023-02-01T08:35:19.312Z,216400.00
2023-02-01T08:41:24.603Z,217795.00
2023-02-01T08:47:27.241Z,216626.00
2023-02-01T08:53:29.569Z,216367.00
2023-02-01T08:59:32.050Z,215239.00
2023-02-01T09:05:48.419Z,214432.00
2023-02-01T09:11:51.939Z,214418.00
2023-02-01T09:17:54.261Z,215162.00
2023-02-01T09:23:56.444Z,214086.00
2023-02-01T09:29:58.950Z,213645.00
2023-02-01T09:36:04.164Z,213453.00
2023-02-01T09:42:18.068Z,213254.00
2023-02-01T09:48:30.108Z,213489.00
2023-02-01T09:54:51.252Z,213542.00
2023-02-01T10:00:56.786Z,213419.00
2023-02-01T10:07:08.537Z,213439.00
2023-02-01T10:13:22.793Z,213900.00
2023-02-01T10:19:39.980Z,213631.00
2023-02-01T10:25:54.144Z,213561.00
2023-02-01T10:31:56.817Z,213803.00
2023-02-01T10:38:03.570Z,214244.00
2023-02-01T10:44:12.497Z,214078.00
2023-02-01T10:50:19.162Z,213936.00
2023-02-01T10:56:26.586Z,214238.00
2023-02-01T11:02:36.343Z,214432.00
2023-02-01T11:08:51.234Z,214474.00
2023-02-01T11:14:59.914Z,214460.00
2023-02-01T11:21:02.630Z,214266.00
2023-02-01T11:27:16.020Z,213720.00
2023-02-01T11:33:26.434Z,213603.00
2023-02-01T11:39:35.388Z,213033.00
2023-02-01T11:45:38.934Z,213461.00
2023-02-01T11:52:15.259Z,214149.00
2023-02-01T11:58:24.036Z,214703.00
2023-02-01T12:04:46.628Z,217924.00
2023-02-01T12:11:04.528Z,218595.00
2023-02-01T12:17:38.502Z,218882.00
2023-02-01T12:24:07.869Z,217560.00
2023-02-01T12:30:38.058Z,216464.00
2023-02-01T12:36:53.714Z,215349.00
2023-02-01T12:43:03.158Z,216070.00
2023-02-01T12:49:47.139Z,215979.00
2023-02-01T12:55:53.752Z,215607.00
2023-02-01T13:02:06.170Z,214584.00
2023-02-01T13:08:14.256Z,214321.00
2023-02-01T13:14:28.517Z,213254.00
2023-02-01T13:20:36.343Z,212981.00
2023-02-01T13:26:38.817Z,212911.00
2023-02-01T13:33:52.844Z,212856.00
2023-02-01T13:39:54.018Z,212794.00
2023-02-01T13:46:04.030Z,212816.00
2023-02-01T13:52:06.640Z,212735.00
2023-02-01T13:58:23.795Z,212680.00
2023-02-01T14:04:49.071Z,212638.00
2023-02-01T14:10:58.778Z,212618.00
2023-02-01T14:17:01.067Z,212569.00
2023-02-01T14:23:14.331Z,212521.00
2023-02-01T14:29:20.911Z,212427.00
2023-02-01T14:35:27.939Z,212371.00
2023-02-01T14:41:36.995Z,212316.00
2023-02-01T14:47:39.455Z,212242.00
2023-02-01T14:53:44.308Z,212242.00
2023-02-01T14:59:47.224Z,212209.00
2023-02-01T15:05:58.677Z,212162.00
2023-02-01T15:12:05.934Z,212092.00
2023-02-01T15:18:19.104Z,212050.00
2023-02-01T15:24:21.356Z,212017.00
2023-02-01T15:30:26.818Z,211997.00
2023-02-01T15:36:30.391Z,215999.00
2023-02-01T15:42:32.960Z,215923.00
2023-02-01T15:48:43.063Z,215917.00
2023-02-01T15:54:50.342Z,215923.00
2023-02-01T16:00:58.922Z,215864.00
2023-02-01T16:07:04.597Z,215836.00
2023-02-01T16:13:06.930Z,215775.00
2023-02-01T16:19:09.780Z,215722.00
2023-02-01T16:25:12.179Z,215694.00
2023-02-01T16:31:20.667Z,215660.00
2023-02-01T16:37:25.971Z,215632.00
2023-02-01T16:43:28.860Z,215591.00
2023-02-01T16:49:31.276Z,215518.00
2023-02-01T16:55:33.707Z,215512.00
2023-02-01T17:01:38.802Z,215512.00
2023-02-01T17:07:42.360Z,215484.00
2023-02-01T17:13:46.702Z,215612.00
2023-02-01T17:19:53.478Z,215646.00
2023-02-01T17:25:55.952Z,215654.00
2023-02-01T17:32:00.741Z,215624.00
2023-02-01T17:38:03.223Z,215599.00
2023-02-01T17:44:05.953Z,215518.00
2023-02-01T17:50:08.490Z,215465.00
2023-02-01T17:56:18.123Z,215381.00
2023-02-01T18:02:23.791Z,215314.00
2023-02-01T18:08:28.905Z,215336.00
2023-02-01T18:14:31.270Z,215263.00
2023-02-01T18:20:33.438Z,215140.00
2023-02-01T18:26:35.711Z,215065.00
2023-02-01T18:32:37.922Z,214992.00
2023-02-01T18:38:40.121Z,214883.00
2023-02-01T18:44:42.553Z,214757.00
2023-02-01T18:50:46.455Z,214729.00
2023-02-01T18:56:50.519Z,214709.00
2023-02-01T19:02:52.831Z,214642.00
2023-02-01T19:08:56.432Z,214695.00
2023-02-01T19:14:59.149Z,214656.00
2023-02-01T19:21:08.363Z,214642.00
2023-02-01T19:27:11.113Z,214608.00
2023-02-01T19:33:13.460Z,214574.00
2023-02-01T19:39:16.027Z,214628.00
2023-02-01T19:45:18.242Z,214681.00
2023-02-01T19:51:20.527Z,214695.00
2023-02-01T19:57:23.385Z,214715.00
2023-02-01T20:03:24.878Z,214689.00
2023-02-01T20:09:29.930Z,214695.00
2023-02-01T20:15:32.684Z,214602.00
2023-02-01T20:21:35.402Z,214546.00
2023-02-01T20:27:39.246Z,214582.00
2023-02-01T20:33:41.713Z,214521.00
2023-02-01T20:39:43.741Z,214527.00
2023-02-01T20:45:46.295Z,214628.00
2023-02-01T20:51:48.840Z,214695.00
2023-02-01T20:57:52.329Z,214759.00
2023-02-01T21:03:54.649Z,214784.00
2023-02-01T21:09:57.073Z,214804.00
2023-02-01T21:15:59.328Z,214804.00
2023-02-01T21:22:01.739Z,214823.00
2023-02-01T21:28:03.993Z,214809.00
2023-02-01T21:34:07.272Z,214857.00
2023-02-01T21:40:10.396Z,214863.00
2023-02-01T21:46:12.623Z,214903.00
2023-02-01T21:52:16.672Z,214883.00
2023-02-01T21:58:18.912Z,214891.00
2023-02-01T22:04:21.451Z,214883.00
2023-02-01T22:10:24.909Z,214903.00
2023-02-01T22:16:27.421Z,214883.00
2023-02-01T22:22:29.926Z,214891.00
2023-02-01T22:28:33.804Z,214903.00
2023-02-01T22:34:36.136Z,214966.00
2023-02-01T22:40:38.300Z,214958.00
2023-02-01T22:46:41.751Z,214903.00
2023-02-01T22:52:44.468Z,214829.00
2023-02-01T22:58:46.670Z,214723.00
2023-02-01T23:04:48.741Z,214588.00
2023-02-01T23:10:51.078Z,214462.00
2023-02-01T23:16:53.374Z,214462.00
2023-02-01T23:22:55.671Z,214409.00
2023-02-01T23:28:59.076Z,214353.00
2023-02-01T23:35:01.975Z,214247.00
2023-02-01T23:41:06.439Z,214213.00
2023-02-01T23:47:10.236Z,214126.00
2023-02-01T23:53:12.367Z,214100.00
2023-02-01T23:59:20.116Z,214080.00
